createdAt,value
2022-08-12T00:02:04.400Z,22.70
2022-08-12T00:07:26.844Z,22.60
2022-08-12T00:12:47.356Z,22.60
2022-08-12T00:18:08.116Z,22.60
2022-08-12T00:23:29.266Z,22.60
2022-08-12T00:28:50.210Z,22.40
2022-08-12T00:34:10.538Z,22.20
2022-08-12T00:39:32.088Z,22.10
2022-08-12T00:44:34.168Z,21.90
2022-08-12T00:49:37.391Z,21.70
2022-08-12T00:54:47.828Z,21.60
2022-08-12T00:59:57.824Z,21.20
2022-08-12T01:05:24.291Z,21.10
2022-08-12T01:10:48.927Z,20.80
2022-08-12T01:15:59.159Z,20.80
2022-08-12T01:21:19.261Z,20.70
2022-08-12T01:26:23.564Z,20.50
2022-08-12T01:31:26.805Z,20.40
2022-08-12T01:36:35.250Z,20.30
2022-08-12T01:41:52.113Z,20.30
2022-08-12T01:47:07.164Z,20.20
2022-08-12T01:52:23.167Z,20.10
2022-08-12T01:57:57.914Z,20.00
2022-08-12T02:03:26.827Z,20.10
2022-08-12T02:09:12.939Z,19.90
2022-08-12T02:14:36.793Z,19.90
2022-08-12T02:19:59.513Z,19.80
2022-08-12T02:25:27.752Z,19.60
2022-08-12T02:30:35.367Z,19.30
2022-08-12T02:35:45.280Z,19.30
2022-08-12T02:40:51.765Z,19.20
2022-08-12T02:46:13.442Z,19.00
2022-08-12T02:51:24.234Z,18.90
2022-08-12T02:56:28.164Z,18.90
2022-08-12T03:01:35.937Z,18.80
2022-08-12T03:06:58.045Z,18.80
2022-08-12T03:12:05.167Z,19.00
2022-08-12T03:17:30.892Z,19.00
2022-08-12T03:22:34.162Z,19.10
2022-08-12T03:27:41.960Z,19.10
2022-08-12T03:32:49.442Z,19.20
2022-08-12T03:37:51.707Z,19.10
2022-08-12T03:43:12.039Z,19.20
2022-08-12T03:48:34.277Z,19.30
2022-08-12T03:53:54.968Z,19.30
2022-08-12T03:59:20.995Z,19.20
2022-08-12T04:04:25.066Z,19.20
2022-08-12T04:09:27.024Z,19.30
2022-08-12T04:14:28.864Z,19.10
2022-08-12T04:19:30.974Z,19.00
2022-08-12T04:24:35.362Z,19.00
2022-08-12T04:30:16.685Z,18.90
2022-08-12T04:35:01.363Z,18.90
2022-08-12T04:40:04.231Z,18.90
2022-08-12T04:45:07.709Z,18.90
2022-08-12T04:50:34.373Z,19.10
2022-08-12T04:55:35.045Z,19.30
2022-08-12T05:00:38.113Z,19.50
2022-08-12T05:05:41.255Z,20.70
2022-08-12T05:10:48.342Z,22.90
2022-08-12T05:16:04.233Z,24.80
2022-08-12T05:21:08.344Z,26.70
2022-08-12T05:26:11.029Z,27.40
2022-08-12T05:31:12.967Z,28.80
2022-08-12T05:36:16.055Z,29.60
2022-08-12T05:41:20.905Z,29.30
2022-08-12T05:46:24.183Z,30.00
2022-08-12T05:51:28.106Z,30.50
2022-08-12T05:56:42.217Z,30.90
2022-08-12T06:02:11.927Z,31.30
2022-08-12T06:08:00.152Z,31.60
2022-08-12T06:12:30.901Z,31.80
2022-08-12T06:17:32.958Z,31.70
2022-08-12T06:22:35.150Z,32.80
2022-08-12T06:28:06.544Z,32.80
2022-08-12T06:33:21.920Z,32.50
2022-08-12T06:38:27.913Z,31.80
2022-08-12T06:43:30.111Z,32.70
2022-08-12T06:48:57.577Z,32.70
2022-08-12T06:54:00.940Z,32.30
2022-08-12T06:59:03.403Z,32.40
2022-08-12T07:04:33.327Z,31.80
2022-08-12T07:09:58.105Z,32.00
2022-08-12T07:14:51.537Z,32.50
2022-08-12T07:19:53.775Z,30.60
2022-08-12T07:25:14.384Z,32.10
2022-08-12T07:30:16.214Z,32.50
2022-08-12T07:35:19.506Z,31.40
2022-08-12T07:40:21.465Z,30.00
2022-08-12T07:45:24.516Z,31.10
2022-08-12T07:50:26.543Z,31.50
2022-08-12T07:55:29.108Z,31.50
2022-08-12T08:00:34.312Z,32.30
2022-08-12T08:05:39.040Z,32.50
2022-08-12T08:10:41.780Z,32.70
2022-08-12T08:16:02.492Z,31.90
2022-08-12T08:21:05.288Z,31.70
2022-08-12T08:26:07.481Z,32.40
2022-08-12T08:31:09.525Z,32.70
2022-08-12T08:36:16.598Z,33.20
2022-08-12T08:42:15.272Z,31.90
2022-08-12T08:47:10.446Z,32.60
2022-08-12T08:52:12.204Z,32.50
2022-08-12T08:57:14.367Z,32.30
2022-08-12T09:02:16.198Z,31.40
2022-08-12T09:07:51.765Z,32.20
2022-08-12T09:13:00.870Z,32.10
2022-08-12T09:18:08.426Z,32.10
2022-08-12T09:24:00.666Z,31.90
2022-08-12T09:28:37.269Z,32.90
2022-08-12T09:34:25.702Z,32.90
2022-08-12T09:39:02.531Z,32.80
2022-08-12T09:44:42.936Z,32.00
2022-08-12T09:49:47.377Z,31.60
2022-08-12T09:55:02.661Z,31.80
2022-08-12T10:00:17.722Z,32.40
2022-08-12T10:05:22.729Z,32.30
2022-08-12T10:11:05.420Z,30.40
2022-08-12T10:16:18.681Z,30.50
2022-08-12T10:21:37.634Z,31.20
2022-08-12T10:26:59.720Z,30.20
2022-08-12T10:32:20.791Z,29.80
2022-08-12T10:38:35.029Z,30.00
2022-08-12T10:43:05.253Z,30.70
2022-08-12T10:48:21.594Z,32.30
2022-08-12T10:53:44.923Z,31.60
2022-08-12T10:58:48.434Z,31.90
2022-08-12T11:04:24.118Z,32.50
2022-08-12T11:09:12.886Z,31.40
2022-08-12T11:14:48.500Z,30.40
2022-08-12T11:19:50.341Z,31.40
2022-08-12T11:24:53.826Z,32.30
2022-08-12T11:30:01.904Z,31.50
2022-08-12T11:35:09.388Z,32.60
2022-08-12T11:40:13.689Z,32.60
2022-08-12T11:45:16.277Z,32.30
2022-08-12T11:50:20.508Z,31.70
2022-08-12T11:55:23.228Z,33.50
2022-08-12T12:05:47.359Z,32.70
2022-08-12T12:10:50.849Z,31.70
2022-08-12T12:15:54.587Z,31.40
2022-08-12T12:21:04.380Z,31.40
2022-08-12T12:26:08.163Z,30.60
2022-08-12T12:31:15.254Z,32.30
2022-08-12T12:36:33.415Z,32.60
2022-08-12T12:42:43.903Z,32.70
2022-08-12T12:46:57.362Z,32.10
2022-08-12T12:52:19.564Z,31.90
2022-08-12T12:57:24.226Z,31.80
2022-08-12T13:02:40.329Z,32.70
2022-08-12T13:07:49.446Z,32.80
2022-08-12T13:14:06.990Z,32.80
2022-08-12T13:18:28.657Z,33.10
2022-08-12T13:23:37.302Z,32.90
2022-08-12T13:28:43.054Z,33.30
2022-08-12T13:34:33.904Z,33.10
2022-08-12T13:39:07.133Z,32.70
2022-08-12T13:44:10.419Z,32.30
2022-08-12T13:49:17.510Z,32.60
2022-08-12T13:54:35.418Z,32.30
2022-08-12T13:59:47.868Z,32.50
2022-08-12T14:04:56.896Z,32.70
2022-08-12T14:10:17.446Z,32.50
2022-08-12T14:15:19.847Z,32.30
2022-08-12T14:20:37.433Z,33.10
2022-08-12T14:25:43.393Z,33.10
2022-08-12T14:31:02.750Z,32.90
2022-08-12T14:36:07.550Z,31.70
2022-08-12T14:41:15.443Z,31.40
2022-08-12T14:46:24.676Z,31.50
2022-08-12T14:53:11.372Z,32.00
2022-08-12T14:57:23.350Z,31.90
2022-08-12T15:02:19.575Z,32.80
2022-08-12T15:07:34.433Z,32.90
2022-08-12T15:12:43.136Z,31.80
2022-08-12T15:17:45.013Z,31.30
2022-08-12T15:22:53.665Z,31.80
2022-08-12T15:28:04.416Z,32.20
2022-08-12T15:33:14.806Z,32.50
2022-08-12T15:38:19.802Z,31.60
2022-08-12T15:43:51.807Z,31.70
2022-08-12T15:48:46.991Z,31.40
2022-08-12T15:54:33.093Z,30.80
2022-08-12T15:59:42.536Z,30.30
2022-08-12T16:04:51.490Z,30.10
2022-08-12T16:10:05.549Z,29.90
2022-08-12T16:15:11.224Z,30.10
2022-08-12T16:20:27.852Z,30.00
2022-08-12T16:26:03.346Z,30.10
2022-08-12T16:30:59.162Z,29.90
2022-08-12T16:36:01.709Z,29.90
2022-08-12T16:41:04.486Z,29.80
2022-08-12T16:46:31.687Z,29.90
2022-08-12T16:51:31.929Z,29.70
2022-08-12T16:56:39.426Z,29.70
2022-08-12T17:01:53.949Z,29.30
2022-08-12T17:06:55.778Z,29.30
2022-08-12T17:11:57.554Z,29.40
2022-08-12T17:16:59.385Z,29.50
2022-08-12T17:22:05.725Z,29.30
2022-08-12T17:27:16.197Z,29.10
2022-08-12T17:32:22.183Z,28.80
2022-08-12T17:37:30.223Z,28.80
2022-08-12T17:42:37.892Z,28.60
2022-08-12T17:47:40.925Z,28.30
2022-08-12T17:52:45.108Z,28.00
2022-08-12T17:57:55.391Z,28.10
2022-08-12T18:02:58.339Z,27.90
2022-08-12T18:08:04.265Z,27.80
2022-08-12T18:13:06.503Z,27.70
2022-08-12T18:18:17.449Z,27.60
2022-08-12T18:23:23.609Z,27.10
2022-08-12T18:28:30.764Z,27.10
2022-08-12T18:33:44.081Z,26.90
2022-08-12T18:38:51.127Z,26.60
2022-08-12T18:44:07.824Z,26.40
2022-08-12T18:49:17.729Z,26.30
2022-08-12T18:54:27.666Z,26.20
2022-08-12T18:59:59.697Z,25.90
2022-08-12T19:04:54.231Z,25.80
2022-08-12T19:09:59.956Z,25.60
2022-08-12T19:15:08.070Z,25.50
2022-08-12T19:20:11.743Z,25.40
2022-08-12T19:25:23.690Z,25.40
2022-08-12T19:31:03.935Z,25.30
2022-08-12T19:36:24.343Z,25.20
2022-08-12T19:41:42.921Z,24.90
2022-08-12T19:46:52.996Z,24.90
2022-08-12T19:51:55.672Z,24.70
2022-08-12T19:56:58.519Z,24.60
2022-08-12T20:02:05.052Z,24.50
2022-08-12T20:07:23.382Z,24.60
2022-08-12T20:12:32.917Z,24.80
2022-08-12T20:17:50.706Z,24.90
2022-08-12T20:22:53.737Z,24.80
2022-08-12T20:28:03.537Z,24.60
2022-08-12T20:33:08.589Z,24.70
2022-08-12T20:38:26.081Z,24.50
2022-08-12T20:43:32.002Z,24.40
2022-08-12T20:48:35.325Z,24.30
2022-08-12T20:53:53.891Z,24.20
2022-08-12T20:59:11.512Z,24.10
2022-08-12T21:04:36.922Z,23.90
2022-08-12T21:09:42.189Z,23.90
2022-08-12T21:14:53.909Z,23.80
2022-08-12T21:20:06.606Z,23.70
2022-08-12T21:25:18.904Z,23.50
2022-08-12T21:30:20.710Z,23.40
2022-08-12T21:35:29.200Z,23.20
2022-08-12T21:40:52.629Z,23.10
2022-08-12T21:46:01.375Z,22.90
2022-08-12T21:51:03.692Z,22.70
2022-08-12T21:56:34.361Z,22.80
2022-08-12T22:01:37.263Z,22.60
2022-08-12T22:06:53.331Z,22.50
2022-08-12T22:12:21.036Z,22.50
2022-08-12T22:17:33.824Z,22.50
2022-08-12T22:22:55.976Z,22.30
2022-08-12T22:28:17.344Z,22.30
2022-08-12T22:33:26.593Z,22.20
2022-08-12T22:38:29.881Z,22.00
2022-08-12T22:43:58.973Z,21.90
2022-08-12T22:49:06.564Z,21.80
2022-08-12T22:54:36.168Z,21.60
2022-08-12T22:59:51.085Z,21.30
2022-08-12T23:04:55.443Z,21.10
2022-08-12T23:09:57.644Z,21.10
2022-08-12T23:14:59.440Z,21.10
2022-08-12T23:20:01.847Z,21.00
2022-08-12T23:25:03.932Z,20.80
2022-08-12T23:30:18.740Z,20.70
2022-08-12T23:35:23.628Z,20.50
2022-08-12T23:40:45.419Z,20.30
2022-08-12T23:46:00.538Z,20.30
2022-08-12T23:51:21.655Z,20.30
2022-08-12T23:56:25.834Z,20.40
